Corpus Christi, Texas
Current Conditions -  °F | °C
As of 5:51 PM on Monday 24 Nov 2014 (Local Time) from KCRP Reporting Station
Scattered Clouds Scattered Clouds  
Wind Chill: 61°   Ceiling: Unl
Heat Index: 61°   Visibility: 10mi
Dew Point: 38°   Wind: 10mph
Humidity: 42%   Direction: 20°NNE
Pressure: 30.04"   Gusts: NA
Location:  27.8°N, 97.4°W
Report Text: KCRP 242351Z 02009KT 10SM SCT100 SCT250 16/03 A3004 RMK AO2 SLP173 T01610033 10206 20161 53008
Loading
Personal Weather Stations






























Interactive Weather Map New forecast layout! Learn more

10-Day Weather Forecast

Advertisements
Track Severe Weather on mobile